sensor_id;sensor_type;location;lat;lon;timestamp;P1;P2;P0
44045;PMS7003;29709;52.396;16.796;2023-05-29T00:00:14;6;6;5
44045;PMS7003;29709;52.396;16.796;2023-05-29T00:03:33;6;6;5
44045;PMS7003;29709;52.396;16.796;2023-05-29T00:06:46;8;6;6
44045;PMS7003;29709;52.396;16.796;2023-05-29T00:09:59;6;6;6
44045;PMS7003;29709;52.396;16.796;2023-05-29T00:13:12;7;6;5
44045;PMS7003;29709;52.396;16.796;2023-05-29T00:16:25;6;5;4
44045;PMS7003;29709;52.396;16.796;2023-05-29T00:19:39;6;6;5
44045;PMS7003;29709;52.396;16.796;2023-05-29T00:22:52;6;6;5
44045;PMS7003;29709;52.396;16.796;2023-05-29T00:26:05;7;5;5
44045;PMS7003;29709;52.396;16.796;2023-05-29T00:29:21;6;6;5
44045;PMS7003;29709;52.396;16.796;2023-05-29T00:32:34;9;7;4
44045;PMS7003;29709;52.396;16.796;2023-05-29T00:35:48;5;4;3
44045;PMS7003;29709;52.396;16.796;2023-05-29T00:39:02;4;4;4
44045;PMS7003;29709;52.396;16.796;2023-05-29T00:42:15;11;5;4
44045;PMS7003;29709;52.396;16.796;2023-05-29T00:45:28;5;4;3
44045;PMS7003;29709;52.396;16.796;2023-05-29T00:48:44;7;7;6
44045;PMS7003;29709;52.396;16.796;2023-05-29T00:51:57;6;5;4
44045;PMS7003;29709;52.396;16.796;2023-05-29T00:55:10;4;4;3
44045;PMS7003;29709;52.396;16.796;2023-05-29T00:58:25;5;5;4
44045;PMS7003;29709;52.396;16.796;2023-05-29T01:01:39;4;4;3
44045;PMS7003;29709;52.396;16.796;2023-05-29T01:04:52;4;3;3
44045;PMS7003;29709;52.396;16.796;2023-05-29T01:08:07;5;4;3
44045;PMS7003;29709;52.396;16.796;2023-05-29T01:11:22;5;5;4
44045;PMS7003;29709;52.396;16.796;2023-05-29T01:14:45;6;4;4
44045;PMS7003;29709;52.396;16.796;2023-05-29T01:28:20;6;6;5
44045;PMS7003;29709;52.396;16.796;2023-05-29T01:31:36;6;5;4
44045;PMS7003;29709;52.396;16.796;2023-05-29T01:34:50;6;5;5
44045;PMS7003;29709;52.396;16.796;2023-05-29T01:38:03;7;6;5
44045;PMS7003;29709;52.396;16.796;2023-05-29T01:41:16;5;5;4
44045;PMS7003;29709;52.396;16.796;2023-05-29T01:44:30;5;5;4
44045;PMS7003;29709;52.396;16.796;2023-05-29T01:47:44;3;3;3
44045;PMS7003;29709;52.396;16.796;2023-05-29T01:50:58;7;7;5
44045;PMS7003;29709;52.396;16.796;2023-05-29T01:54:12;7;6;5
44045;PMS7003;29709;52.396;16.796;2023-05-29T01:57:26;8;6;5
44045;PMS7003;29709;52.396;16.796;2023-05-29T02:00:39;5;5;4
44045;PMS7003;29709;52.396;16.796;2023-05-29T02:03:52;7;6;5
44045;PMS7003;29709;52.396;16.796;2023-05-29T02:07:06;7;6;5
44045;PMS7003;29709;52.396;16.796;2023-05-29T02:10:19;6;5;4
44045;PMS7003;29709;52.396;16.796;2023-05-29T02:13:32;7;5;4
44045;PMS7003;29709;52.396;16.796;2023-05-29T02:16:45;5;4;4
44045;PMS7003;29709;52.396;16.796;2023-05-29T02:19:58;5;4;3
44045;PMS7003;29709;52.396;16.796;2023-05-29T02:23:12;5;4;3
44045;PMS7003;29709;52.396;16.796;2023-05-29T02:26:26;5;4;3
44045;PMS7003;29709;52.396;16.796;2023-05-29T02:29:39;5;3;2
44045;PMS7003;29709;52.396;16.796;2023-05-29T02:32:52;4;3;3
44045;PMS7003;29709;52.396;16.796;2023-05-29T02:36:05;5;5;4
44045;PMS7003;29709;52.396;16.796;2023-05-29T02:39:24;5;4;4
44045;PMS7003;29709;52.396;16.796;2023-05-29T02:42:37;4;4;3
44045;PMS7003;29709;52.396;16.796;2023-05-29T02:45:50;7;4;3
44045;PMS7003;29709;52.396;16.796;2023-05-29T02:49:08;5;4;4
44045;PMS7003;29709;52.396;16.796;2023-05-29T02:52:21;4;3;2
44045;PMS7003;29709;52.396;16.796;2023-05-29T02:55:35;4;4;3
44045;PMS7003;29709;52.396;16.796;2023-05-29T02:58:49;5;4;3
44045;PMS7003;29709;52.396;16.796;2023-05-29T03:02:03;5;4;4
44045;PMS7003;29709;52.396;16.796;2023-05-29T03:05:16;4;3;2
44045;PMS7003;29709;52.396;16.796;2023-05-29T03:08:32;5;5;3
44045;PMS7003;29709;52.396;16.796;2023-05-29T03:11:46;5;3;2
44045;PMS7003;29709;52.396;16.796;2023-05-29T03:15:05;3;3;3
44045;PMS7003;29709;52.396;16.796;2023-05-29T03:18:18;2;2;1
44045;PMS7003;29709;52.396;16.796;2023-05-29T03:21:32;4;4;3
44045;PMS7003;29709;52.396;16.796;2023-05-29T03:24:46;4;3;2
44045;PMS7003;29709;52.396;16.796;2023-05-29T03:27:59;2;2;1
44045;PMS7003;29709;52.396;16.796;2023-05-29T03:31:12;4;3;3
44045;PMS7003;29709;52.396;16.796;2023-05-29T03:34:25;3;3;2
44045;PMS7003;29709;52.396;16.796;2023-05-29T03:37:40;4;4;3
44045;PMS7003;29709;52.396;16.796;2023-05-29T03:40:53;3;3;2
44045;PMS7003;29709;52.396;16.796;2023-05-29T03:44:06;3;1;1
44045;PMS7003;29709;52.396;16.796;2023-05-29T03:47:19;4;4;3
44045;PMS7003;29709;52.396;16.796;2023-05-29T03:50:33;4;4;3
44045;PMS7003;29709;52.396;16.796;2023-05-29T03:53:46;4;3;2
44045;PMS7003;29709;52.396;16.796;2023-05-29T03:56:59;3;3;3
44045;PMS7003;29709;52.396;16.796;2023-05-29T04:00:12;5;5;4
44045;PMS7003;29709;52.396;16.796;2023-05-29T04:03:26;4;4;3
44045;PMS7003;29709;52.396;16.796;2023-05-29T04:06:40;5;2;1
44045;PMS7003;29709;52.396;16.796;2023-05-29T04:09:53;5;5;3
44045;PMS7003;29709;52.396;16.796;2023-05-29T04:13:07;2;2;1
44045;PMS7003;29709;52.396;16.796;2023-05-29T04:16:20;4;4;3
44045;PMS7003;29709;52.396;16.796;2023-05-29T04:19:33;6;5;4
44045;PMS7003;29709;52.396;16.796;2023-05-29T04:22:46;1;1;0
44045;PMS7003;29709;52.396;16.796;2023-05-29T04:26:00;6;5;3
44045;PMS7003;29709;52.396;16.796;2023-05-29T04:29:14;5;3;3
44045;PMS7003;29709;52.396;16.796;2023-05-29T04:32:28;6;5;3
44045;PMS7003;29709;52.396;16.796;2023-05-29T04:35:41;3;2;2
44045;PMS7003;29709;52.396;16.796;2023-05-29T04:38:58;4;3;2
44045;PMS7003;29709;52.396;16.796;2023-05-29T04:42:11;4;3;2
44045;PMS7003;29709;52.396;16.796;2023-05-29T04:45:27;4;3;3
44045;PMS7003;29709;52.396;16.796;2023-05-29T04:48:40;6;5;4
44045;PMS7003;29709;52.396;16.796;2023-05-29T04:51:53;4;4;3
44045;PMS7003;29709;52.396;16.796;2023-05-29T04:55:07;4;4;3
44045;PMS7003;29709;52.396;16.796;2023-05-29T04:58:20;4;3;2
44045;PMS7003;29709;52.396;16.796;2023-05-29T05:01:34;4;4;3
44045;PMS7003;29709;52.396;16.796;2023-05-29T05:04:47;5;4;3
44045;PMS7003;29709;52.396;16.796;2023-05-29T05:08:00;3;3;2
44045;PMS7003;29709;52.396;16.796;2023-05-29T05:11:13;5;3;3
44045;PMS7003;29709;52.396;16.796;2023-05-29T05:14:27;3;3;3
44045;PMS7003;29709;52.396;16.796;2023-05-29T05:17:40;5;5;4
44045;PMS7003;29709;52.396;16.796;2023-05-29T05:20:54;4;3;3
44045;PMS7003;29709;52.396;16.796;2023-05-29T05:24:07;3;3;2
44045;PMS7003;29709;52.396;16.796;2023-05-29T05:27:21;6;5;4
44045;PMS7003;29709;52.396;16.796;2023-05-29T05:30:34;3;2;1
44045;PMS7003;29709;52.396;16.796;2023-05-29T05:33:47;6;5;4
44045;PMS7003;29709;52.396;16.796;2023-05-29T05:37:01;2;1;1
44045;PMS7003;29709;52.396;16.796;2023-05-29T05:40:15;3;2;2
44045;PMS7003;29709;52.396;16.796;2023-05-29T05:43:28;3;3;2
44045;PMS7003;29709;52.396;16.796;2023-05-29T05:46:42;1;0;0
44045;PMS7003;29709;52.396;16.796;2023-05-29T05:49:55;5;4;2
44045;PMS7003;29709;52.396;16.796;2023-05-29T05:53:08;5;4;3
44045;PMS7003;29709;52.396;16.796;2023-05-29T05:56:21;5;4;3
44045;PMS7003;29709;52.396;16.796;2023-05-29T05:59:35;3;3;3
44045;PMS7003;29709;52.396;16.796;2023-05-29T06:02:48;4;3;2
44045;PMS7003;29709;52.396;16.796;2023-05-29T06:06:01;2;1;0
44045;PMS7003;29709;52.396;16.796;2023-05-29T06:09:15;3;2;2
44045;PMS7003;29709;52.396;16.796;2023-05-29T06:12:28;5;2;1
44045;PMS7003;29709;52.396;16.796;2023-05-29T06:15:41;2;1;1
44045;PMS7003;29709;52.396;16.796;2023-05-29T06:18:54;3;2;2
44045;PMS7003;29709;52.396;16.796;2023-05-29T06:22:08;1;1;1
44045;PMS7003;29709;52.396;16.796;2023-05-29T06:25:21;3;3;1
44045;PMS7003;29709;52.396;16.796;2023-05-29T06:28:39;4;2;1
44045;PMS7003;29709;52.396;16.796;2023-05-29T06:31:53;5;3;2
44045;PMS7003;29709;52.396;16.796;2023-05-29T06:35:06;5;2;2
44045;PMS7003;29709;52.396;16.796;2023-05-29T06:38:20;4;1;1
44045;PMS7003;29709;52.396;16.796;2023-05-29T06:41:33;3;2;2
44045;PMS7003;29709;52.396;16.796;2023-05-29T06:44:46;3;2;1
44045;PMS7003;29709;52.396;16.796;2023-05-29T06:47:59;3;3;2
44045;PMS7003;29709;52.396;16.796;2023-05-29T06:51:12;3;2;1
44045;PMS7003;29709;52.396;16.796;2023-05-29T06:54:25;2;2;2
44045;PMS7003;29709;52.396;16.796;2023-05-29T06:57:39;4;3;2
44045;PMS7003;29709;52.396;16.796;2023-05-29T07:00:52;4;2;2
44045;PMS7003;29709;52.396;16.796;2023-05-29T07:04:05;2;2;2
44045;PMS7003;29709;52.396;16.796;2023-05-29T07:07:19;2;1;1
44045;PMS7003;29709;52.396;16.796;2023-05-29T07:10:32;3;2;1
44045;PMS7003;29709;52.396;16.796;2023-05-29T07:13:45;1;0;0
44045;PMS7003;29709;52.396;16.796;2023-05-29T07:16:58;0;0;0
44045;PMS7003;29709;52.396;16.796;2023-05-29T07:20:13;1;0;0
44045;PMS7003;29709;52.396;16.796;2023-05-29T07:23:28;2;1;1
44045;PMS7003;29709;52.396;16.796;2023-05-29T07:26:41;1;1;0
44045;PMS7003;29709;52.396;16.796;2023-05-29T07:29:54;1;1;1
44045;PMS7003;29709;52.396;16.796;2023-05-29T07:33:07;0;0;0
44045;PMS7003;29709;52.396;16.796;2023-05-29T07:36:20;2;2;2
44045;PMS7003;29709;52.396;16.796;2023-05-29T07:39:34;1;1;1
44045;PMS7003;29709;52.396;16.796;2023-05-29T07:42:48;3;2;1
44045;PMS7003;29709;52.396;16.796;2023-05-29T07:46:01;1;1;0
44045;PMS7003;29709;52.396;16.796;2023-05-29T07:49:14;2;2;1
44045;PMS7003;29709;52.396;16.796;2023-05-29T07:52:28;1;1;1
44045;PMS7003;29709;52.396;16.796;2023-05-29T07:55:41;2;1;0
44045;PMS7003;29709;52.396;16.796;2023-05-29T07:58:54;0;0;0
44045;PMS7003;29709;52.396;16.796;2023-05-29T08:02:09;2;1;0
44045;PMS7003;29709;52.396;16.796;2023-05-29T08:05:22;1;0;0
44045;PMS7003;29709;52.396;16.796;2023-05-29T08:08:35;1;0;0
44045;PMS7003;29709;52.396;16.796;2023-05-29T08:11:48;6;1;1
44045;PMS7003;29709;52.396;16.796;2023-05-29T08:15:02;1;0;0
44045;PMS7003;29709;52.396;16.796;2023-05-29T08:18:16;1;1;0
44045;PMS7003;29709;52.396;16.796;2023-05-29T08:21:31;0;0;0
44045;PMS7003;29709;52.396;16.796;2023-05-29T08:24:45;2;0;0
44045;PMS7003;29709;52.396;16.796;2023-05-29T08:28:32;1;1;1
44045;PMS7003;29709;52.396;16.796;2023-05-29T08:31:48;2;2;1
44045;PMS7003;29709;52.396;16.796;2023-05-29T08:35:01;1;0;0
44045;PMS7003;29709;52.396;16.796;2023-05-29T08:38:17;2;1;1
44045;PMS7003;29709;52.396;16.796;2023-05-29T08:44:55;2;2;2
44045;PMS7003;29709;52.396;16.796;2023-05-29T08:48:13;1;1;1
44045;PMS7003;29709;52.396;16.796;2023-05-29T08:51:31;1;1;1
44045;PMS7003;29709;52.396;16.796;2023-05-29T08:54:49;1;1;0
44045;PMS7003;29709;52.396;16.796;2023-05-29T08:58:02;1;1;1
44045;PMS7003;29709;52.396;16.796;2023-05-29T09:01:16;2;1;1
44045;PMS7003;29709;52.396;16.796;2023-05-29T09:04:30;1;1;1
44045;PMS7003;29709;52.396;16.796;2023-05-29T09:07:43;2;1;1
44045;PMS7003;29709;52.396;16.796;2023-05-29T09:10:57;2;2;2
44045;PMS7003;29709;52.396;16.796;2023-05-29T09:14:11;4;1;1
44045;PMS7003;29709;52.396;16.796;2023-05-29T09:17:30;2;1;1
44045;PMS7003;29709;52.396;16.796;2023-05-29T09:20:45;2;1;1
44045;PMS7003;29709;52.396;16.796;2023-05-29T09:27:18;1;1;1
44045;PMS7003;29709;52.396;16.796;2023-05-29T09:30:36;2;1;1
44045;PMS7003;29709;52.396;16.796;2023-05-29T09:33:53;2;2;2
44045;PMS7003;29709;52.396;16.796;2023-05-29T09:37:07;2;1;1
44045;PMS7003;29709;52.396;16.796;2023-05-29T09:40:21;1;1;1
44045;PMS7003;29709;52.396;16.796;2023-05-29T09:43:34;2;2;1
44045;PMS7003;29709;52.396;16.796;2023-05-29T09:46:48;2;2;2
44045;PMS7003;29709;52.396;16.796;2023-05-29T09:50:02;0;0;0
44045;PMS7003;29709;52.396;16.796;2023-05-29T09:53:16;2;1;0
44045;PMS7003;29709;52.396;16.796;2023-05-29T09:56:31;2;1;1
44045;PMS7003;29709;52.396;16.796;2023-05-29T09:59:46;3;2;2
44045;PMS7003;29709;52.396;16.796;2023-05-29T10:03:04;2;2;1
44045;PMS7003;29709;52.396;16.796;2023-05-29T10:06:18;3;2;1
44045;PMS7003;29709;52.396;16.796;2023-05-29T10:09:33;1;1;1
44045;PMS7003;29709;52.396;16.796;2023-05-29T10:12:48;2;1;1
44045;PMS7003;29709;52.396;16.796;2023-05-29T10:16:03;0;0;0
44045;PMS7003;29709;52.396;16.796;2023-05-29T10:19:21;3;2;2
44045;PMS7003;29709;52.396;16.796;2023-05-29T10:22:39;1;1;1
44045;PMS7003;29709;52.396;16.796;2023-05-29T10:25:57;3;1;1
44045;PMS7003;29709;52.396;16.796;2023-05-29T10:29:35;2;2;1
44045;PMS7003;29709;52.396;16.796;2023-05-29T10:33:07;2;1;1
44045;PMS7003;29709;52.396;16.796;2023-05-29T10:39:36;2;1;1
44045;PMS7003;29709;52.396;16.796;2023-05-29T10:42:50;2;2;1
44045;PMS7003;29709;52.396;16.796;2023-05-29T10:46:11;2;1;1
44045;PMS7003;29709;52.396;16.796;2023-05-29T10:49:24;0;0;0
44045;PMS7003;29709;52.396;16.796;2023-05-29T10:52:40;1;0;0
44045;PMS7003;29709;52.396;16.796;2023-05-29T10:56:00;4;1;1
44045;PMS7003;29709;52.396;16.796;2023-05-29T10:59:14;1;1;0
44045;PMS7003;29709;52.396;16.796;2023-05-29T11:02:30;2;1;0
44045;PMS7003;29709;52.396;16.796;2023-05-29T11:12:34;1;1;1
44045;PMS7003;29709;52.396;16.796;2023-05-29T11:15:48;4;1;1
44045;PMS7003;29709;52.396;16.796;2023-05-29T11:19:05;0;0;0
44045;PMS7003;29709;52.396;16.796;2023-05-29T11:22:23;2;2;2
44045;PMS7003;29709;52.396;16.796;2023-05-29T11:25:44;2;2;1
44045;PMS7003;29709;52.396;16.796;2023-05-29T11:29:01;2;1;0
44045;PMS7003;29709;52.396;16.796;2023-05-29T11:32:22;3;2;1
44045;PMS7003;29709;52.396;16.796;2023-05-29T11:35:40;1;0;0
44045;PMS7003;29709;52.396;16.796;2023-05-29T11:38:53;1;1;1
44045;PMS7003;29709;52.396;16.796;2023-05-29T11:42:07;1;1;1
44045;PMS7003;29709;52.396;16.796;2023-05-29T11:45:21;3;2;2
44045;PMS7003;29709;52.396;16.796;2023-05-29T11:48:44;1;1;1
44045;PMS7003;29709;52.396;16.796;2023-05-29T11:55:26;1;0;0
44045;PMS7003;29709;52.396;16.796;2023-05-29T11:58:40;1;1;0
44045;PMS7003;29709;52.396;16.796;2023-05-29T12:01:54;1;1;0
44045;PMS7003;29709;52.396;16.796;2023-05-29T12:05:07;2;2;1
44045;PMS7003;29709;52.396;16.796;2023-05-29T12:08:21;2;2;1
44045;PMS7003;29709;52.396;16.796;2023-05-29T12:11:36;1;0;0
44045;PMS7003;29709;52.396;16.796;2023-05-29T12:14:52;3;2;2
44045;PMS7003;29709;52.396;16.796;2023-05-29T12:18:06;2;0;0
44045;PMS7003;29709;52.396;16.796;2023-05-29T12:21:19;2;1;1
44045;PMS7003;29709;52.396;16.796;2023-05-29T12:24:34;2;1;1
44045;PMS7003;29709;52.396;16.796;2023-05-29T12:27:48;2;2;1
44045;PMS7003;29709;52.396;16.796;2023-05-29T12:31:02;2;1;1
44045;PMS7003;29709;52.396;16.796;2023-05-29T12:34:15;1;1;0
44045;PMS7003;29709;52.396;16.796;2023-05-29T12:37:30;2;1;0
44045;PMS7003;29709;52.396;16.796;2023-05-29T12:40:47;1;1;1
44045;PMS7003;29709;52.396;16.796;2023-05-29T12:44:04;1;1;0
44045;PMS7003;29709;52.396;16.796;2023-05-29T12:47:23;1;0;0
44045;PMS7003;29709;52.396;16.796;2023-05-29T12:50:37;1;0;0
44045;PMS7003;29709;52.396;16.796;2023-05-29T12:53:51;1;0;0
44045;PMS7003;29709;52.396;16.796;2023-05-29T12:57:09;1;1;0
44045;PMS7003;29709;52.396;16.796;2023-05-29T13:00:22;0;0;0
44045;PMS7003;29709;52.396;16.796;2023-05-29T13:03:36;2;1;0
44045;PMS7003;29709;52.396;16.796;2023-05-29T13:06:49;1;0;0
44045;PMS7003;29709;52.396;16.796;2023-05-29T13:10:02;2;1;1
44045;PMS7003;29709;52.396;16.796;2023-05-29T13:13:18;0;0;0
44045;PMS7003;29709;52.396;16.796;2023-05-29T13:16:34;1;1;1
44045;PMS7003;29709;52.396;16.796;2023-05-29T13:19:48;2;2;1
44045;PMS7003;29709;52.396;16.796;2023-05-29T13:23:01;1;1;1
44045;PMS7003;29709;52.396;16.796;2023-05-29T13:26:15;1;1;0
44045;PMS7003;29709;52.396;16.796;2023-05-29T13:29:28;1;1;1
44045;PMS7003;29709;52.396;16.796;2023-05-29T13:32:41;1;1;1
44045;PMS7003;29709;52.396;16.796;2023-05-29T13:35:55;2;1;1
44045;PMS7003;29709;52.396;16.796;2023-05-29T13:39:08;4;1;1
44045;PMS7003;29709;52.396;16.796;2023-05-29T13:42:22;2;0;0
44045;PMS7003;29709;52.396;16.796;2023-05-29T13:45:35;0;0;0
44045;PMS7003;29709;52.396;16.796;2023-05-29T13:48:49;2;2;1
44045;PMS7003;29709;52.396;16.796;2023-05-29T13:52:03;1;0;0
44045;PMS7003;29709;52.396;16.796;2023-05-29T13:55:16;1;0;0
44045;PMS7003;29709;52.396;16.796;2023-05-29T13:58:29;1;0;0
44045;PMS7003;29709;52.396;16.796;2023-05-29T14:01:43;2;1;0
44045;PMS7003;29709;52.396;16.796;2023-05-29T14:04:58;2;1;1
44045;PMS7003;29709;52.396;16.796;2023-05-29T14:08:11;0;0;0
44045;PMS7003;29709;52.396;16.796;2023-05-29T14:11:24;2;1;1
44045;PMS7003;29709;52.396;16.796;2023-05-29T14:14:39;2;1;1
44045;PMS7003;29709;52.396;16.796;2023-05-29T14:17:52;0;0;0
44045;PMS7003;29709;52.396;16.796;2023-05-29T14:21:05;2;1;1
44045;PMS7003;29709;52.396;16.796;2023-05-29T14:24:18;0;0;0
44045;PMS7003;29709;52.396;16.796;2023-05-29T14:27:32;1;1;1
44045;PMS7003;29709;52.396;16.796;2023-05-29T14:30:45;1;1;1
44045;PMS7003;29709;52.396;16.796;2023-05-29T14:33:58;3;0;0
44045;PMS7003;29709;52.396;16.796;2023-05-29T14:37:11;1;1;1
44045;PMS7003;29709;52.396;16.796;2023-05-29T14:40:24;2;1;1
44045;PMS7003;29709;52.396;16.796;2023-05-29T14:43:38;1;1;1
44045;PMS7003;29709;52.396;16.796;2023-05-29T14:46:53;2;1;1
44045;PMS7003;29709;52.396;16.796;2023-05-29T14:50:07;0;0;0
44045;PMS7003;29709;52.396;16.796;2023-05-29T14:53:21;2;0;0
44045;PMS7003;29709;52.396;16.796;2023-05-29T14:56:35;3;1;1
44045;PMS7003;29709;52.396;16.796;2023-05-29T14:59:48;1;1;1
44045;PMS7003;29709;52.396;16.796;2023-05-29T15:03:03;2;1;0
44045;PMS7003;29709;52.396;16.796;2023-05-29T15:06:16;2;1;1
44045;PMS7003;29709;52.396;16.796;2023-05-29T15:09:29;0;0;0
44045;PMS7003;29709;52.396;16.796;2023-05-29T15:12:42;1;1;1
44045;PMS7003;29709;52.396;16.796;2023-05-29T15:15:56;1;1;1
44045;PMS7003;29709;52.396;16.796;2023-05-29T15:19:12;2;1;1
44045;PMS7003;29709;52.396;16.796;2023-05-29T15:22:25;2;1;0
44045;PMS7003;29709;52.396;16.796;2023-05-29T15:25:38;1;1;1
44045;PMS7003;29709;52.396;16.796;2023-05-29T15:28:51;2;2;1
44045;PMS7003;29709;52.396;16.796;2023-05-29T15:32:05;2;1;1
44045;PMS7003;29709;52.396;16.796;2023-05-29T15:35:18;2;0;0
44045;PMS7003;29709;52.396;16.796;2023-05-29T15:38:32;1;1;0
44045;PMS7003;29709;52.396;16.796;2023-05-29T15:41:45;2;1;1
44045;PMS7003;29709;52.396;16.796;2023-05-29T15:44:59;0;0;0
44045;PMS7003;29709;52.396;16.796;2023-05-29T15:48:16;0;0;0
44045;PMS7003;29709;52.396;16.796;2023-05-29T15:51:29;0;0;0
44045;PMS7003;29709;52.396;16.796;2023-05-29T15:54:43;2;1;1
44045;PMS7003;29709;52.396;16.796;2023-05-29T15:57:56;1;1;0
44045;PMS7003;29709;52.396;16.796;2023-05-29T16:01:09;1;1;1
44045;PMS7003;29709;52.396;16.796;2023-05-29T16:04:23;1;1;1
44045;PMS7003;29709;52.396;16.796;2023-05-29T16:07:37;1;1;0
44045;PMS7003;29709;52.396;16.796;2023-05-29T16:10:51;2;1;1
44045;PMS7003;29709;52.396;16.796;2023-05-29T16:14:04;0;0;0
44045;PMS7003;29709;52.396;16.796;2023-05-29T16:17:18;0;0;0
44045;PMS7003;29709;52.396;16.796;2023-05-29T16:20:32;2;2;1
44045;PMS7003;29709;52.396;16.796;2023-05-29T16:23:45;0;0;0
44045;PMS7003;29709;52.396;16.796;2023-05-29T16:27:01;0;0;0
44045;PMS7003;29709;52.396;16.796;2023-05-29T16:30:20;1;1;1
44045;PMS7003;29709;52.396;16.796;2023-05-29T16:33:36;1;1;0
44045;PMS7003;29709;52.396;16.796;2023-05-29T16:36:49;3;1;1
44045;PMS7003;29709;52.396;16.796;2023-05-29T16:40:02;1;1;0
44045;PMS7003;29709;52.396;16.796;2023-05-29T16:43:16;1;1;0
44045;PMS7003;29709;52.396;16.796;2023-05-29T16:46:29;1;0;0
44045;PMS7003;29709;52.396;16.796;2023-05-29T16:49:43;3;1;1
44045;PMS7003;29709;52.396;16.796;2023-05-29T16:52:56;0;0;0
44045;PMS7003;29709;52.396;16.796;2023-05-29T16:56:09;2;1;1
44045;PMS7003;29709;52.396;16.796;2023-05-29T16:59:23;1;1;1
44045;PMS7003;29709;52.396;16.796;2023-05-29T17:02:37;1;0;0
44045;PMS7003;29709;52.396;16.796;2023-05-29T17:05:51;1;1;0
44045;PMS7003;29709;52.396;16.796;2023-05-29T17:09:05;1;1;1
44045;PMS7003;29709;52.396;16.796;2023-05-29T17:12:20;2;1;1
44045;PMS7003;29709;52.396;16.796;2023-05-29T17:15:33;0;0;0
44045;PMS7003;29709;52.396;16.796;2023-05-29T17:18:46;0;0;0
44045;PMS7003;29709;52.396;16.796;2023-05-29T17:22:01;1;0;0
44045;PMS7003;29709;52.396;16.796;2023-05-29T17:25:15;2;1;0
44045;PMS7003;29709;52.396;16.796;2023-05-29T17:28:29;2;1;1
44045;PMS7003;29709;52.396;16.796;2023-05-29T17:31:43;2;1;1
44045;PMS7003;29709;52.396;16.796;2023-05-29T17:34:56;1;1;1
44045;PMS7003;29709;52.396;16.796;2023-05-29T17:38:09;1;1;1
44045;PMS7003;29709;52.396;16.796;2023-05-29T17:41:24;1;0;0
44045;PMS7003;29709;52.396;16.796;2023-05-29T17:44:39;0;0;0
44045;PMS7003;29709;52.396;16.796;2023-05-29T17:47:52;0;0;0
44045;PMS7003;29709;52.396;16.796;2023-05-29T17:51:06;0;0;0
44045;PMS7003;29709;52.396;16.796;2023-05-29T17:54:19;8;4;3
44045;PMS7003;29709;52.396;16.796;2023-05-29T17:57:33;1;1;1
44045;PMS7003;29709;52.396;16.796;2023-05-29T18:00:46;3;2;1
44045;PMS7003;29709;52.396;16.796;2023-05-29T18:03:59;2;2;1
44045;PMS7003;29709;52.396;16.796;2023-05-29T18:07:13;0;0;0
44045;PMS7003;29709;52.396;16.796;2023-05-29T18:10:30;1;0;0
44045;PMS7003;29709;52.396;16.796;2023-05-29T18:13:43;2;0;0
44045;PMS7003;29709;52.396;16.796;2023-05-29T18:16:56;7;6;5
44045;PMS7003;29709;52.396;16.796;2023-05-29T18:20:09;1;1;1
44045;PMS7003;29709;52.396;16.796;2023-05-29T18:23:25;4;4;2
44045;PMS7003;29709;52.396;16.796;2023-05-29T18:26:38;5;4;3
44045;PMS7003;29709;52.396;16.796;2023-05-29T18:29:56;7;7;5
44045;PMS7003;29709;52.396;16.796;2023-05-29T18:33:12;5;5;3
44045;PMS7003;29709;52.396;16.796;2023-05-29T18:36:26;56;46;32
44045;PMS7003;29709;52.396;16.796;2023-05-29T18:39:39;45;35;23
44045;PMS7003;29709;52.396;16.796;2023-05-29T18:42:53;36;28;18
44045;PMS7003;29709;52.396;16.796;2023-05-29T18:46:06;13;11;9
44045;PMS7003;29709;52.396;16.796;2023-05-29T18:49:19;2;1;1
44045;PMS7003;29709;52.396;16.796;2023-05-29T18:52:33;1;1;1
44045;PMS7003;29709;52.396;16.796;2023-05-29T18:55:47;2;1;1
44045;PMS7003;29709;52.396;16.796;2023-05-29T18:59:00;0;0;0
44045;PMS7003;29709;52.396;16.796;2023-05-29T19:02:15;0;0;0
44045;PMS7003;29709;52.396;16.796;2023-05-29T19:05:28;1;1;1
44045;PMS7003;29709;52.396;16.796;2023-05-29T19:08:41;4;1;0
44045;PMS7003;29709;52.396;16.796;2023-05-29T19:11:55;1;1;1
44045;PMS7003;29709;52.396;16.796;2023-05-29T19:15:09;4;1;1
44045;PMS7003;29709;52.396;16.796;2023-05-29T19:18:23;2;1;1
44045;PMS7003;29709;52.396;16.796;2023-05-29T19:21:36;1;1;0
44045;PMS7003;29709;52.396;16.796;2023-05-29T19:24:50;2;1;1
44045;PMS7003;29709;52.396;16.796;2023-05-29T19:28:03;1;1;1
44045;PMS7003;29709;52.396;16.796;2023-05-29T19:31:21;2;1;1
44045;PMS7003;29709;52.396;16.796;2023-05-29T19:34:39;1;1;1
44045;PMS7003;29709;52.396;16.796;2023-05-29T19:37:52;0;0;0
44045;PMS7003;29709;52.396;16.796;2023-05-29T19:41:10;1;0;0
44045;PMS7003;29709;52.396;16.796;2023-05-29T19:44:23;0;0;0
44045;PMS7003;29709;52.396;16.796;2023-05-29T19:47:37;1;1;0
44045;PMS7003;29709;52.396;16.796;2023-05-29T19:50:50;1;1;1
44045;PMS7003;29709;52.396;16.796;2023-05-29T19:54:03;3;1;1
44045;PMS7003;29709;52.396;16.796;2023-05-29T19:57:16;1;1;1
44045;PMS7003;29709;52.396;16.796;2023-05-29T20:00:32;2;1;0
44045;PMS7003;29709;52.396;16.796;2023-05-29T20:03:45;1;1;1
44045;PMS7003;29709;52.396;16.796;2023-05-29T20:06:58;1;1;0
44045;PMS7003;29709;52.396;16.796;2023-05-29T20:10:12;1;0;0
44045;PMS7003;29709;52.396;16.796;2023-05-29T20:13:26;4;1;1
44045;PMS7003;29709;52.396;16.796;2023-05-29T20:16:39;1;1;1
44045;PMS7003;29709;52.396;16.796;2023-05-29T20:19:53;5;1;1
44045;PMS7003;29709;52.396;16.796;2023-05-29T20:23:07;2;1;1
44045;PMS7003;29709;52.396;16.796;2023-05-29T20:26:20;2;2;1
44045;PMS7003;29709;52.396;16.796;2023-05-29T20:29:34;1;1;0
44045;PMS7003;29709;52.396;16.796;2023-05-29T20:32:48;0;0;0
44045;PMS7003;29709;52.396;16.796;2023-05-29T20:36:02;1;1;0
44045;PMS7003;29709;52.396;16.796;2023-05-29T20:39:16;2;2;1
44045;PMS7003;29709;52.396;16.796;2023-05-29T20:42:30;4;2;1
44045;PMS7003;29709;52.396;16.796;2023-05-29T20:45:43;2;1;1
44045;PMS7003;29709;52.396;16.796;2023-05-29T20:48:56;1;1;0
44045;PMS7003;29709;52.396;16.796;2023-05-29T20:52:10;1;1;1
44045;PMS7003;29709;52.396;16.796;2023-05-29T20:55:24;1;1;0
44045;PMS7003;29709;52.396;16.796;2023-05-29T20:58:41;1;1;0
44045;PMS7003;29709;52.396;16.796;2023-05-29T21:01:55;1;1;1
44045;PMS7003;29709;52.396;16.796;2023-05-29T21:05:10;1;1;0
44045;PMS7003;29709;52.396;16.796;2023-05-29T21:08:23;1;1;1
44045;PMS7003;29709;52.396;16.796;2023-05-29T21:11:38;2;2;1
44045;PMS7003;29709;52.396;16.796;2023-05-29T21:14:52;1;1;0
44045;PMS7003;29709;52.396;16.796;2023-05-29T21:18:05;2;1;1
44045;PMS7003;29709;52.396;16.796;2023-05-29T21:21:19;2;1;0
44045;PMS7003;29709;52.396;16.796;2023-05-29T21:24:33;1;1;1
44045;PMS7003;29709;52.396;16.796;2023-05-29T21:27:46;2;0;0
44045;PMS7003;29709;52.396;16.796;2023-05-29T21:31:01;2;1;1
44045;PMS7003;29709;52.396;16.796;2023-05-29T21:34:15;3;1;1
44045;PMS7003;29709;52.396;16.796;2023-05-29T21:37:29;1;1;0
44045;PMS7003;29709;52.396;16.796;2023-05-29T21:40:42;1;1;1
44045;PMS7003;29709;52.396;16.796;2023-05-29T21:43:55;1;1;1
44045;PMS7003;29709;52.396;16.796;2023-05-29T21:47:08;2;2;1
44045;PMS7003;29709;52.396;16.796;2023-05-29T21:50:22;1;1;1
44045;PMS7003;29709;52.396;16.796;2023-05-29T21:53:35;2;0;0
44045;PMS7003;29709;52.396;16.796;2023-05-29T21:56:51;0;0;0